createdAt,value
2018-05-25T00:00:17.181Z,22.00
2018-05-25T00:01:17.189Z,21.30
2018-05-25T00:02:17.186Z,20.90
2018-05-25T00:03:17.288Z,19.70
2018-05-25T00:04:17.195Z,20.40
2018-05-25T00:05:17.251Z,20.20
2018-05-25T00:06:17.196Z,20.70
2018-05-25T00:07:17.400Z,20.50
2018-05-25T00:08:17.197Z,21.00
2018-05-25T00:09:17.198Z,21.00
2018-05-25T00:10:17.413Z,22.30
2018-05-25T00:11:17.205Z,22.40
2018-05-25T00:12:17.206Z,22.70
2018-05-25T00:13:17.207Z,23.20
2018-05-25T00:14:17.215Z,23.00
2018-05-25T00:15:17.208Z,23.30
2018-05-25T00:16:17.209Z,23.70
2018-05-25T00:17:17.212Z,24.10
2018-05-25T00:18:17.415Z,24.70
2018-05-25T00:19:17.214Z,24.50
2018-05-25T00:20:17.227Z,24.70
2018-05-25T00:21:17.219Z,24.10
2018-05-25T00:22:17.420Z,24.00
2018-05-25T00:23:17.437Z,22.40
2018-05-25T00:24:17.227Z,22.30
2018-05-25T00:25:17.429Z,22.60
2018-05-25T00:26:17.239Z,21.50
2018-05-25T00:27:17.232Z,21.10
2018-05-25T00:28:17.229Z,21.00
2018-05-25T00:29:17.245Z,20.70
2018-05-25T00:30:17.244Z,21.40
2018-05-25T00:31:17.245Z,23.10
2018-05-25T00:32:17.238Z,22.30
2018-05-25T00:33:17.241Z,22.20
2018-05-25T00:34:17.240Z,23.00
2018-05-25T00:35:17.444Z,22.10
2018-05-25T00:36:17.247Z,22.70
2018-05-25T00:37:17.263Z,21.90
2018-05-25T00:38:17.268Z,21.90
2018-05-25T00:39:17.464Z,21.50
2018-05-25T00:40:17.453Z,21.20
2018-05-25T00:41:17.268Z,20.60
2018-05-25T00:42:17.265Z,21.90
2018-05-25T00:43:17.255Z,22.80
2018-05-25T00:44:17.266Z,23.30
2018-05-25T00:45:17.470Z,23.70
2018-05-25T00:46:17.270Z,25.30
2018-05-25T00:47:17.274Z,25.10
2018-05-25T00:48:17.289Z,25.60
2018-05-25T00:49:17.261Z,25.50
2018-05-25T00:50:17.264Z,25.00
2018-05-25T00:51:17.275Z,26.90
2018-05-25T00:52:17.269Z,25.10
2018-05-25T00:53:17.269Z,25.00
2018-05-25T00:54:17.271Z,25.80
2018-05-25T00:55:17.287Z,24.10
2018-05-25T00:56:17.285Z,22.90
2018-05-25T00:57:17.288Z,23.00
2018-05-25T00:58:17.289Z,21.30
2018-05-25T00:59:17.287Z,20.70
2018-05-25T01:00:17.311Z,19.50
2018-05-25T01:01:17.487Z,19.60
2018-05-25T01:02:17.314Z,18.80
2018-05-25T01:03:17.296Z,17.50
2018-05-25T01:04:17.316Z,17.30
2018-05-25T01:05:17.318Z,16.20
2018-05-25T01:06:17.306Z,16.30
2018-05-25T01:07:17.324Z,17.70
2018-05-25T01:08:17.305Z,18.00
2018-05-25T01:09:17.312Z,19.70
2018-05-25T01:10:17.297Z,19.80
2018-05-25T01:11:17.308Z,18.70
2018-05-25T01:12:17.528Z,20.10
2018-05-25T01:13:17.331Z,20.20
2018-05-25T01:14:17.319Z,19.70
2018-05-25T01:15:17.536Z,21.20
2018-05-25T01:16:17.338Z,21.20
2018-05-25T01:17:17.325Z,22.00
2018-05-25T01:18:17.511Z,21.30
2018-05-25T01:19:17.513Z,22.30
2018-05-25T01:20:17.322Z,23.90
2018-05-25T01:21:17.324Z,21.70
2018-05-25T01:22:17.328Z,20.90
2018-05-25T01:23:17.336Z,21.50
2018-05-25T01:24:17.318Z,22.50
2018-05-25T01:25:17.333Z,20.10
2018-05-25T01:26:17.326Z,18.90
2018-05-25T01:27:17.325Z,18.10
2018-05-25T01:28:17.325Z,16.40
2018-05-25T01:29:17.359Z,16.60
2018-05-25T01:30:17.534Z,18.10
2018-05-25T01:31:17.332Z,16.40
2018-05-25T01:32:17.333Z,17.70
2018-05-25T01:33:17.335Z,18.30
2018-05-25T01:34:17.542Z,18.90
2018-05-25T01:35:17.338Z,17.90
2018-05-25T01:36:17.337Z,19.00
2018-05-25T01:37:17.339Z,19.80
2018-05-25T01:38:17.355Z,19.90
2018-05-25T01:39:17.349Z,19.60
2018-05-25T01:40:17.548Z,19.60
2018-05-25T01:41:17.348Z,20.20
2018-05-25T01:42:17.554Z,20.10
2018-05-25T01:43:17.363Z,20.50
2018-05-25T01:44:17.353Z,22.10
2018-05-25T01:45:17.357Z,22.60
2018-05-25T01:46:17.357Z,21.90
2018-05-25T01:47:17.357Z,22.50
2018-05-25T01:48:17.359Z,22.80
2018-05-25T01:49:17.363Z,23.30
2018-05-25T01:50:17.363Z,22.80
2018-05-25T01:51:17.366Z,24.10
2018-05-25T01:52:17.376Z,24.40
2018-05-25T01:53:17.371Z,24.30
2018-05-25T01:54:17.575Z,25.70
2018-05-25T01:55:17.577Z,25.40
2018-05-25T01:56:17.374Z,24.70
2018-05-25T01:57:17.387Z,25.80
2018-05-25T01:58:17.389Z,25.30
2018-05-25T01:59:17.381Z,22.20
2018-05-25T02:00:17.382Z,21.80
2018-05-25T02:01:17.382Z,21.20
2018-05-25T02:02:17.389Z,22.10
2018-05-25T02:03:17.395Z,21.80
2018-05-25T02:04:17.398Z,22.30
2018-05-25T02:05:17.594Z,24.30
2018-05-25T02:06:17.604Z,22.40
2018-05-25T02:07:17.407Z,22.30
2018-05-25T02:08:17.610Z,22.30
2018-05-25T02:09:17.411Z,22.40
2018-05-25T02:10:17.403Z,21.80
2018-05-25T02:11:17.414Z,22.20
2018-05-25T02:12:17.413Z,22.30
2018-05-25T02:13:17.402Z,22.30
2018-05-25T02:14:17.405Z,22.40
2018-05-25T02:15:17.410Z,23.70
2018-05-25T02:16:17.425Z,23.10
2018-05-25T02:17:17.419Z,22.80
2018-05-25T02:18:17.411Z,23.20
2018-05-25T02:19:17.431Z,23.60
2018-05-25T02:20:17.414Z,23.30
2018-05-25T02:21:17.427Z,23.00
2018-05-25T02:22:17.418Z,22.10
2018-05-25T02:23:17.423Z,21.40
2018-05-25T02:24:17.424Z,21.80
2018-05-25T02:25:17.424Z,21.70
2018-05-25T02:26:17.428Z,22.60
2018-05-25T02:27:17.645Z,23.60
2018-05-25T02:28:17.629Z,22.40
2018-05-25T02:29:17.431Z,23.60
2018-05-25T02:30:17.435Z,22.90
2018-05-25T02:31:17.636Z,22.90
2018-05-25T02:32:17.448Z,23.60
2018-05-25T02:33:17.637Z,23.60
2018-05-25T02:34:17.640Z,24.30
2018-05-25T02:35:17.441Z,23.90
2018-05-25T02:36:17.444Z,23.90
2018-05-25T02:37:17.648Z,23.00
2018-05-25T02:38:17.445Z,23.20
2018-05-25T02:39:17.458Z,22.60
2018-05-25T02:40:17.650Z,21.60
2018-05-25T02:41:17.452Z,21.80
2018-05-25T02:42:17.466Z,21.80
2018-05-25T02:43:17.471Z,22.30
2018-05-25T02:44:17.459Z,22.20
2018-05-25T02:45:17.468Z,23.30
2018-05-25T02:46:17.669Z,23.90
2018-05-25T02:47:17.462Z,24.00
2018-05-25T02:48:17.462Z,23.50
2018-05-25T02:49:17.464Z,23.50
2018-05-25T02:50:17.466Z,25.10
2018-05-25T02:51:17.478Z,26.00
2018-05-25T02:52:17.673Z,25.50
2018-05-25T02:53:17.472Z,26.30
2018-05-25T02:54:17.479Z,26.60
2018-05-25T02:55:17.477Z,27.10
2018-05-25T02:56:17.688Z,27.10
2018-05-25T02:57:17.743Z,27.30
2018-05-25T02:58:17.483Z,29.40
2018-05-25T02:59:17.514Z,28.50
2018-05-25T03:00:17.696Z,27.90
2018-05-25T03:01:17.541Z,27.90
2018-05-25T03:02:17.485Z,27.50
2018-05-25T03:03:17.690Z,25.10
2018-05-25T03:04:17.690Z,21.60
2018-05-25T03:05:17.505Z,23.70
2018-05-25T03:06:17.505Z,24.90
2018-05-25T03:07:17.511Z,21.00
2018-05-25T03:08:17.518Z,20.60
2018-05-25T03:09:17.511Z,20.40
2018-05-25T03:10:17.510Z,19.70
2018-05-25T03:11:17.517Z,19.50
2018-05-25T03:12:17.501Z,18.20
2018-05-25T03:13:17.503Z,18.70
2018-05-25T03:14:17.505Z,19.40
2018-05-25T03:15:17.509Z,18.80
2018-05-25T03:16:17.519Z,19.10
2018-05-25T03:17:17.512Z,19.30
2018-05-25T03:18:17.713Z,18.30
2018-05-25T03:19:17.519Z,18.50
2018-05-25T03:20:17.513Z,18.10
2018-05-25T03:21:17.527Z,17.70
2018-05-25T03:22:17.536Z,20.00
2018-05-25T03:23:17.724Z,20.60
2018-05-25T03:24:17.522Z,20.60
2018-05-25T03:25:17.543Z,20.20
2018-05-25T03:26:17.543Z,20.10
2018-05-25T03:27:17.557Z,23.00
2018-05-25T03:28:17.528Z,20.80
2018-05-25T03:29:17.731Z,21.40
2018-05-25T03:30:17.549Z,21.50
2018-05-25T03:31:17.545Z,23.30
2018-05-25T03:32:17.766Z,22.70
2018-05-25T03:33:17.565Z,22.60
2018-05-25T03:34:17.761Z,23.30
2018-05-25T03:35:17.540Z,24.20
2018-05-25T03:36:17.548Z,23.30
2018-05-25T03:37:17.760Z,22.30
2018-05-25T03:38:17.578Z,23.00
2018-05-25T03:39:17.565Z,22.70
2018-05-25T03:40:17.553Z,19.90
2018-05-25T03:41:17.770Z,20.50
2018-05-25T03:42:17.549Z,18.50
2018-05-25T03:43:17.754Z,18.30
2018-05-25T03:44:17.754Z,17.10
2018-05-25T03:45:17.554Z,16.50
2018-05-25T03:46:17.561Z,17.50
2018-05-25T03:47:17.560Z,18.70
2018-05-25T03:48:17.561Z,21.20
2018-05-25T03:49:17.559Z,22.20
2018-05-25T03:50:17.578Z,22.60
2018-05-25T03:51:17.564Z,23.20
2018-05-25T03:52:17.589Z,24.30
2018-05-25T03:53:17.567Z,23.90
2018-05-25T03:54:17.581Z,24.70
2018-05-25T03:55:17.571Z,23.30
2018-05-25T03:56:17.773Z,22.90
2018-05-25T03:57:17.579Z,24.40
2018-05-25T03:58:17.576Z,26.00
2018-05-25T03:59:17.592Z,25.30
2018-05-25T04:00:17.592Z,23.60
2018-05-25T04:01:17.579Z,24.60
2018-05-25T04:02:17.584Z,25.50
2018-05-25T04:03:17.783Z,25.60
2018-05-25T04:04:17.583Z,24.00
2018-05-25T04:05:17.587Z,24.40
2018-05-25T04:06:17.593Z,26.50
2018-05-25T04:07:17.587Z,24.50
2018-05-25T04:08:17.590Z,24.30
2018-05-25T04:09:17.792Z,23.70
2018-05-25T04:10:17.600Z,19.10
2018-05-25T04:11:17.795Z,18.70
2018-05-25T04:12:17.636Z,17.10
2018-05-25T04:13:17.596Z,19.60
2018-05-25T04:14:17.651Z,20.70
2018-05-25T04:15:17.601Z,19.90
2018-05-25T04:16:17.815Z,21.60
2018-05-25T04:17:17.602Z,21.10
2018-05-25T04:18:17.603Z,22.20
2018-05-25T04:19:17.606Z,22.50
2018-05-25T04:20:17.807Z,22.90
2018-05-25T04:21:17.609Z,21.90
2018-05-25T04:22:17.611Z,21.70
2018-05-25T04:23:17.615Z,23.00
2018-05-25T04:24:17.625Z,22.50
2018-05-25T04:25:17.613Z,22.50
2018-05-25T04:26:17.613Z,23.10
2018-05-25T04:27:17.616Z,22.40
2018-05-25T04:28:17.819Z,24.00
2018-05-25T04:29:17.619Z,23.30
2018-05-25T04:30:17.621Z,24.30
2018-05-25T04:31:17.824Z,24.20
2018-05-25T04:32:17.626Z,25.80
2018-05-25T04:33:17.831Z,26.60
2018-05-25T04:34:17.829Z,25.90
2018-05-25T04:35:17.628Z,26.40
2018-05-25T04:36:17.632Z,26.30
2018-05-25T04:37:17.844Z,26.00
2018-05-25T04:38:17.632Z,26.80
2018-05-25T04:39:17.633Z,25.70
2018-05-25T04:40:17.639Z,27.30
2018-05-25T04:41:17.636Z,28.30
2018-05-25T04:42:17.640Z,27.60
2018-05-25T04:43:17.662Z,28.10
2018-05-25T04:44:17.655Z,25.90
2018-05-25T04:45:17.643Z,25.70
2018-05-25T04:46:17.654Z,23.90
2018-05-25T04:47:17.660Z,24.20
2018-05-25T04:48:17.647Z,25.50
2018-05-25T04:49:17.663Z,25.30
2018-05-25T04:50:17.857Z,26.60
2018-05-25T04:51:17.861Z,26.00
2018-05-25T04:52:17.661Z,26.60
2018-05-25T04:53:17.653Z,26.00
2018-05-25T04:54:17.668Z,26.30
2018-05-25T04:55:17.686Z,23.00
2018-05-25T04:56:17.657Z,22.40
2018-05-25T04:57:17.683Z,24.20
2018-05-25T04:58:17.662Z,25.30
2018-05-25T04:59:17.742Z,25.30
2018-05-25T05:00:17.678Z,24.90
2018-05-25T05:01:17.682Z,27.10
2018-05-25T05:02:17.668Z,27.80
2018-05-25T05:03:17.684Z,30.30
2018-05-25T05:04:17.667Z,30.30
2018-05-25T05:05:17.671Z,32.10
2018-05-25T05:06:17.875Z,33.50
2018-05-25T05:07:17.684Z,35.00
2018-05-25T05:08:17.675Z,35.10
2018-05-25T05:09:17.877Z,35.80
2018-05-25T05:10:17.676Z,36.80
2018-05-25T05:11:17.679Z,37.60
2018-05-25T05:12:17.710Z,36.40
2018-05-25T05:13:17.681Z,37.30
2018-05-25T05:14:17.681Z,38.90
2018-05-25T05:15:17.685Z,38.50
2018-05-25T05:16:17.695Z,36.40
2018-05-25T05:17:17.689Z,38.20
2018-05-25T05:18:17.892Z,38.60
2018-05-25T05:19:17.893Z,39.90
2018-05-25T05:20:17.905Z,39.80
2018-05-25T05:21:17.693Z,39.20
2018-05-25T05:22:17.698Z,40.10
2018-05-25T05:23:17.900Z,38.60
2018-05-25T05:24:17.698Z,41.60
2018-05-25T05:25:17.709Z,41.70
2018-05-25T05:26:17.902Z,40.60
2018-05-25T05:27:17.906Z,39.10
2018-05-25T05:28:17.706Z,39.90
2018-05-25T05:29:17.707Z,40.90
2018-05-25T05:30:17.720Z,40.70
2018-05-25T05:31:17.924Z,39.00
2018-05-25T05:32:17.713Z,38.20
2018-05-25T05:33:17.714Z,39.10
2018-05-25T05:34:17.717Z,39.60
2018-05-25T05:35:17.723Z,42.90
2018-05-25T05:36:17.737Z,41.00
2018-05-25T05:37:17.724Z,43.50
2018-05-25T05:38:17.722Z,42.00
2018-05-25T05:39:17.941Z,43.20
2018-05-25T05:40:17.727Z,39.00
2018-05-25T05:41:17.932Z,37.90
2018-05-25T05:42:17.734Z,37.70
2018-05-25T05:43:17.745Z,36.10
2018-05-25T05:44:17.751Z,32.60
2018-05-25T05:45:17.738Z,33.60
2018-05-25T05:46:17.751Z,33.00
2018-05-25T05:47:17.948Z,33.80
2018-05-25T05:48:17.743Z,35.40
2018-05-25T05:49:17.757Z,34.20
2018-05-25T05:50:17.751Z,31.00
2018-05-25T05:51:17.769Z,30.70
2018-05-25T05:52:17.955Z,30.80
2018-05-25T05:53:17.756Z,34.30
2018-05-25T05:54:17.959Z,32.50
2018-05-25T05:55:17.963Z,31.40
2018-05-25T05:56:17.761Z,30.60
2018-05-25T05:57:17.774Z,31.40
2018-05-25T05:58:17.766Z,32.30
2018-05-25T05:59:17.770Z,31.80
2018-05-25T06:00:17.973Z,28.40
2018-05-25T06:01:17.976Z,31.60
2018-05-25T06:02:17.777Z,31.30
2018-05-25T06:03:17.779Z,31.60
2018-05-25T06:04:17.855Z,29.40
2018-05-25T06:05:17.815Z,29.00
2018-05-25T06:06:17.787Z,29.10
2018-05-25T06:07:17.795Z,28.10
2018-05-25T06:08:17.802Z,29.70
2018-05-25T06:09:17.798Z,29.60
2018-05-25T06:10:17.797Z,29.10
2018-05-25T06:11:17.798Z,28.70
2018-05-25T06:12:17.811Z,27.80
2018-05-25T06:13:17.802Z,28.50
2018-05-25T06:14:17.816Z,27.40
2018-05-25T06:15:18.015Z,27.10
2018-05-25T06:16:18.025Z,26.60
2018-05-25T06:17:17.815Z,25.50
2018-05-25T06:18:17.829Z,26.60
2018-05-25T06:19:17.832Z,28.80
2018-05-25T06:20:18.029Z,29.10
2018-05-25T06:21:17.826Z,27.40
2018-05-25T06:22:17.840Z,27.10
2018-05-25T06:23:17.847Z,27.70
2018-05-25T06:24:17.837Z,26.90
2018-05-25T06:25:17.885Z,27.00
2018-05-25T06:26:17.850Z,26.70
2018-05-25T06:27:17.869Z,26.90
2018-05-25T06:28:18.046Z,25.90
2018-05-25T06:29:17.850Z,27.30
2018-05-25T06:30:17.864Z,27.50
2018-05-25T06:31:17.865Z,27.90
2018-05-25T06:32:17.870Z,26.40
2018-05-25T06:33:17.859Z,25.70
2018-05-25T06:34:17.866Z,26.10
2018-05-25T06:35:17.878Z,26.60
2018-05-25T06:36:18.085Z,26.10
2018-05-25T06:37:18.095Z,25.60
2018-05-25T06:38:17.876Z,26.30
2018-05-25T06:39:17.888Z,25.20
2018-05-25T06:40:17.882Z,26.00
2018-05-25T06:41:18.100Z,26.00
2018-05-25T06:42:17.887Z,24.80
2018-05-25T06:43:18.114Z,25.20
2018-05-25T06:44:17.895Z,25.10
2018-05-25T06:45:18.104Z,24.10
2018-05-25T06:46:17.913Z,24.70
2018-05-25T06:47:18.106Z,23.90
2018-05-25T06:48:17.910Z,23.60
2018-05-25T06:49:17.914Z,23.90
2018-05-25T06:50:17.916Z,24.30
2018-05-25T06:51:17.918Z,23.50
2018-05-25T06:52:17.918Z,24.00
2018-05-25T06:53:18.123Z,24.70
2018-05-25T06:54:17.944Z,23.40
2018-05-25T06:55:17.928Z,24.00
2018-05-25T06:56:17.932Z,23.70
2018-05-25T06:57:17.939Z,23.20
2018-05-25T06:58:17.954Z,24.30
2018-05-25T06:59:17.954Z,24.30
2018-05-25T07:00:17.945Z,23.70
2018-05-25T07:01:17.963Z,23.20
2018-05-25T07:02:18.154Z,23.60
2018-05-25T07:03:17.959Z,24.80
2018-05-25T07:04:17.970Z,23.90
2018-05-25T07:05:17.970Z,24.50
2018-05-25T07:06:18.170Z,24.20
2018-05-25T07:07:17.970Z,23.00
2018-05-25T07:08:17.984Z,24.30
2018-05-25T07:09:17.979Z,25.00
2018-05-25T07:10:17.978Z,24.90
2018-05-25T07:11:17.981Z,24.60
2018-05-25T07:12:17.985Z,23.70
2018-05-25T07:13:18.002Z,23.90
2018-05-25T07:14:17.991Z,23.50
2018-05-25T07:15:17.996Z,24.80
2018-05-25T07:16:18.199Z,24.80
2018-05-25T07:17:18.003Z,25.20
2018-05-25T07:18:18.006Z,24.90
2018-05-25T07:19:18.021Z,23.60
2018-05-25T07:20:18.014Z,23.80
2018-05-25T07:21:18.017Z,24.20
2018-05-25T07:22:18.019Z,25.40
2018-05-25T07:23:18.226Z,25.30
2018-05-25T07:24:18.027Z,25.10
2018-05-25T07:25:18.232Z,24.50
2018-05-25T07:26:18.291Z,24.70
2018-05-25T07:27:18.255Z,25.20
2018-05-25T07:28:18.040Z,25.00
2018-05-25T07:29:18.045Z,23.50
2018-05-25T07:30:18.248Z,23.30
2018-05-25T07:31:18.061Z,25.50
2018-05-25T07:32:18.055Z,26.50
2018-05-25T07:33:18.068Z,26.10
2018-05-25T07:34:18.266Z,24.80
2018-05-25T07:35:18.266Z,24.50
2018-05-25T07:36:18.068Z,24.00
2018-05-25T07:37:18.083Z,24.10
2018-05-25T07:38:18.094Z,23.60
2018-05-25T07:39:18.324Z,24.20
2018-05-25T07:40:18.078Z,28.40
2018-05-25T07:41:18.101Z,27.00
2018-05-25T07:42:18.088Z,25.80
2018-05-25T07:43:18.304Z,26.30
2018-05-25T07:44:18.305Z,27.80
2018-05-25T07:45:18.097Z,28.20
2018-05-25T07:46:18.111Z,26.90
2018-05-25T07:47:18.307Z,27.50
2018-05-25T07:48:18.110Z,26.00
2018-05-25T07:49:18.112Z,26.60
2018-05-25T07:50:18.116Z,25.60
2018-05-25T07:51:18.130Z,27.00
2018-05-25T07:52:18.151Z,26.30
2018-05-25T07:53:18.135Z,27.00
2018-05-25T07:54:18.174Z,25.70
2018-05-25T07:55:18.334Z,27.40
2018-05-25T07:56:18.337Z,26.70
2018-05-25T07:57:18.152Z,26.40
2018-05-25T07:58:18.356Z,27.10
2018-05-25T07:59:18.148Z,26.70
2018-05-25T08:00:18.202Z,26.60
2018-05-25T08:01:18.151Z,26.60
2018-05-25T08:02:18.166Z,28.10
2018-05-25T08:03:18.169Z,28.20
2018-05-25T08:04:18.177Z,27.40
2018-05-25T08:05:18.369Z,28.20
2018-05-25T08:06:18.379Z,26.60
2018-05-25T08:07:18.188Z,26.80
2018-05-25T08:08:18.188Z,26.70
2018-05-25T08:09:18.182Z,28.20
2018-05-25T08:10:18.185Z,28.20
2018-05-25T08:11:18.186Z,29.10
2018-05-25T08:12:18.194Z,27.80
2018-05-25T08:13:18.193Z,28.90
2018-05-25T08:14:18.408Z,28.70
2018-05-25T08:15:18.202Z,27.90
2018-05-25T08:16:18.420Z,28.50
2018-05-25T08:17:18.217Z,29.60
2018-05-25T08:18:18.211Z,28.70
2018-05-25T08:19:18.234Z,28.40
2018-05-25T08:20:18.236Z,27.70
2018-05-25T08:21:18.235Z,27.00
2018-05-25T08:22:18.248Z,26.80
2018-05-25T08:23:18.228Z,27.50
2018-05-25T08:24:18.435Z,28.90
2018-05-25T08:25:18.237Z,28.30
2018-05-25T08:26:18.245Z,27.90
2018-05-25T08:27:18.261Z,28.20
2018-05-25T08:28:18.256Z,28.10
2018-05-25T08:29:18.250Z,26.80
2018-05-25T08:30:18.465Z,27.30
2018-05-25T08:31:18.256Z,27.80
2018-05-25T08:32:18.274Z,27.30
2018-05-25T08:33:18.277Z,27.40
2018-05-25T09:01:10.235Z,28.60
2018-05-25T09:06:10.425Z,27.10
2018-05-25T09:07:10.251Z,28.50
2018-05-25T09:08:10.227Z,29.00
2018-05-25T09:09:10.429Z,26.80
2018-05-25T09:10:10.433Z,28.00
2018-05-25T09:11:10.240Z,27.70
2018-05-25T09:12:10.484Z,26.80
2018-05-25T09:13:10.246Z,27.60
2018-05-25T09:14:10.237Z,29.30
2018-05-25T09:15:10.240Z,28.60
2018-05-25T09:16:10.447Z,29.20
2018-05-25T09:17:10.244Z,26.70
2018-05-25T09:18:10.249Z,27.60
2018-05-25T09:19:10.257Z,26.20
2018-05-25T09:20:10.255Z,25.70
2018-05-25T09:21:10.269Z,25.70
2018-05-25T09:22:10.261Z,26.50
2018-05-25T09:23:10.262Z,24.30
2018-05-25T09:24:10.464Z,25.20
2018-05-25T09:25:10.266Z,25.50
2018-05-25T09:26:10.274Z,25.90
2018-05-25T09:27:10.480Z,24.40
2018-05-25T09:28:10.479Z,24.50
2018-05-25T09:29:10.288Z,25.20
2018-05-25T09:30:10.282Z,24.40
2018-05-25T09:31:10.288Z,24.40
2018-05-25T09:32:10.288Z,24.60
2018-05-25T09:33:10.303Z,22.40
2018-05-25T09:34:10.296Z,23.70
2018-05-25T09:35:10.512Z,25.30
2018-05-25T09:36:10.301Z,23.00
2018-05-25T09:37:10.539Z,24.50
2018-05-25T09:38:10.316Z,24.70
2018-05-25T09:39:10.314Z,23.70
2018-05-25T09:40:10.315Z,24.10
2018-05-25T09:41:10.319Z,24.00
2018-05-25T09:42:10.328Z,24.10
2018-05-25T09:43:10.530Z,23.10
2018-05-25T09:44:10.352Z,23.60
2018-05-25T09:45:10.337Z,22.50
2018-05-25T09:46:10.338Z,23.10
2018-05-25T09:47:10.544Z,22.00
2018-05-25T09:48:10.345Z,24.20
2018-05-25T09:49:10.356Z,22.50
2018-05-25T09:50:10.359Z,22.30
2018-05-25T09:51:10.358Z,22.40
2018-05-25T09:52:10.562Z,21.90
2018-05-25T09:53:10.370Z,23.60
2018-05-25T09:54:10.571Z,20.80
2018-05-25T09:55:10.378Z,20.90
2018-05-25T09:56:10.445Z,21.90
2018-05-25T09:57:10.584Z,24.60
2018-05-25T09:58:10.389Z,21.90
2018-05-25T09:59:10.592Z,20.60
2018-05-25T10:00:10.393Z,20.00
2018-05-25T10:01:10.600Z,19.30
2018-05-25T10:02:10.413Z,18.20
2018-05-25T10:03:10.464Z,18.30
2018-05-25T10:04:10.418Z,19.10
2018-05-25T10:05:10.413Z,20.60
2018-05-25T10:06:10.629Z,20.30
2018-05-25T10:07:10.425Z,20.20
2018-05-25T10:08:10.625Z,20.60
2018-05-25T10:09:10.428Z,20.30
2018-05-25T10:10:10.439Z,20.90
2018-05-25T10:11:10.453Z,20.10
2018-05-25T10:12:10.454Z,19.00
2018-05-25T10:13:10.449Z,18.10
2018-05-25T10:14:10.450Z,18.00
2018-05-25T10:15:10.452Z,17.80
2018-05-25T10:16:10.457Z,17.70
2018-05-25T10:17:10.663Z,16.80
2018-05-25T10:18:10.475Z,17.70
2018-05-25T10:19:10.699Z,17.30
2018-05-25T10:20:10.488Z,17.20
2018-05-25T10:21:10.478Z,17.30
2018-05-25T10:22:10.684Z,17.10
2018-05-25T10:23:10.500Z,16.20
2018-05-25T10:24:10.691Z,16.20
2018-05-25T10:25:10.506Z,18.40
2018-05-25T10:26:10.516Z,17.90
2018-05-25T10:27:10.531Z,17.00
2018-05-25T10:28:10.707Z,16.30
2018-05-25T10:29:10.526Z,15.60
2018-05-25T10:30:10.515Z,15.40
2018-05-25T10:31:10.521Z,15.60
2018-05-25T10:32:10.550Z,15.90
2018-05-25T10:33:10.558Z,15.00
2018-05-25T10:34:10.537Z,15.20
2018-05-25T10:35:10.563Z,16.00
2018-05-25T10:36:10.567Z,15.90
2018-05-25T10:37:10.760Z,16.80
2018-05-25T10:38:10.549Z,15.90
2018-05-25T10:39:10.554Z,16.40
2018-05-25T10:40:10.570Z,15.90
2018-05-25T10:41:10.575Z,15.80
2018-05-25T10:42:10.569Z,15.30
2018-05-25T10:43:10.581Z,15.50
2018-05-25T10:44:10.776Z,13.80
2018-05-25T10:45:10.581Z,14.90
2018-05-25T10:46:10.602Z,14.90
2018-05-25T10:47:10.587Z,15.30
2018-05-25T10:48:10.591Z,15.20
2018-05-25T10:49:10.612Z,16.30
2018-05-25T10:50:10.625Z,15.00
2018-05-25T10:51:10.604Z,16.60
2018-05-25T10:52:10.810Z,15.40
2018-05-25T10:53:10.626Z,15.50
2018-05-25T10:54:10.617Z,14.50
2018-05-25T10:55:10.625Z,14.80
2018-05-25T10:56:10.628Z,14.60
2018-05-25T10:57:10.632Z,14.00
2018-05-25T10:58:10.650Z,12.20
2018-05-25T10:59:10.640Z,12.30
2018-05-25T11:00:10.645Z,11.90
2018-05-25T11:01:10.647Z,13.20
2018-05-25T11:02:10.654Z,12.70
2018-05-25T11:03:10.668Z,13.40
2018-05-25T11:04:10.865Z,13.10
2018-05-25T11:05:10.665Z,13.60
2018-05-25T11:06:10.669Z,12.80
2018-05-25T11:07:10.877Z,14.00
2018-05-25T11:08:10.681Z,14.10
2018-05-25T11:09:10.682Z,13.90
2018-05-25T11:10:10.900Z,13.60
2018-05-25T11:11:10.695Z,13.60
2018-05-25T11:12:10.721Z,13.20
2018-05-25T11:13:10.907Z,12.80
2018-05-25T11:14:10.909Z,12.60
2018-05-25T11:15:10.712Z,12.60
2018-05-25T11:16:10.724Z,16.10
2018-05-25T11:17:10.733Z,15.50
2018-05-25T11:18:10.722Z,14.60
2018-05-25T11:19:10.753Z,14.10
2018-05-25T11:20:10.933Z,14.60
2018-05-25T11:21:10.739Z,13.40
2018-05-25T11:22:10.755Z,13.40
2018-05-25T11:23:10.747Z,14.20
2018-05-25T11:24:10.754Z,13.00
2018-05-25T11:25:10.971Z,13.10
2018-05-25T11:26:10.759Z,12.60
2018-05-25T11:27:10.762Z,12.10
2018-05-25T11:28:10.770Z,11.20
2018-05-25T11:29:10.773Z,11.40
2018-05-25T11:30:10.978Z,11.30
2018-05-25T11:31:10.788Z,11.10
2018-05-25T11:32:10.997Z,11.10
2018-05-25T11:33:11.020Z,12.30
2018-05-25T11:34:10.795Z,11.70
2018-05-25T11:35:10.799Z,12.10
2018-05-25T11:36:10.804Z,11.90
2018-05-25T11:37:10.836Z,13.10
2018-05-25T11:38:10.812Z,11.40
2018-05-25T11:39:10.824Z,11.00
2018-05-25T11:40:11.030Z,11.90
2018-05-25T11:41:10.831Z,12.10
2018-05-25T11:42:10.856Z,12.00
2018-05-25T11:43:11.056Z,12.10
2018-05-25T11:44:11.052Z,12.10
2018-05-25T11:45:11.046Z,12.20
2018-05-25T11:46:11.049Z,12.10
2018-05-25T11:47:10.852Z,11.90
2018-05-25T11:48:10.858Z,12.00
2018-05-25T11:49:10.861Z,12.40
2018-05-25T11:50:10.890Z,11.20
2018-05-25T11:51:10.939Z,10.70
2018-05-25T11:52:10.882Z,9.90
2018-05-25T11:53:10.892Z,11.60
2018-05-25T11:54:10.886Z,12.90
2018-05-25T11:55:11.091Z,13.30
2018-05-25T11:56:10.892Z,13.20
2018-05-25T11:57:11.115Z,12.90
2018-05-25T11:58:10.903Z,12.50
2018-05-25T11:59:10.906Z,11.70
2018-05-25T12:00:11.111Z,11.10
2018-05-25T12:01:10.919Z,10.80
2018-05-25T12:02:10.934Z,10.80
2018-05-25T12:03:10.923Z,11.10
2018-05-25T12:04:10.935Z,11.20
2018-05-25T12:05:10.946Z,11.10
2018-05-25T12:06:10.935Z,11.10
2018-05-25T12:07:10.968Z,10.80
2018-05-25T12:08:11.145Z,10.40
2018-05-25T12:09:11.159Z,10.90
2018-05-25T12:10:10.975Z,10.70
2018-05-25T12:11:10.959Z,10.90
2018-05-25T12:12:10.976Z,10.00
2018-05-25T12:13:10.991Z,11.00
2018-05-25T12:14:10.996Z,11.30
2018-05-25T12:15:11.177Z,11.40
2018-05-25T12:16:10.977Z,11.50
2018-05-25T12:17:11.002Z,11.00
2018-05-25T12:18:11.195Z,11.60
2018-05-25T12:19:11.196Z,12.80
2018-05-25T12:20:10.997Z,11.90
2018-05-25T12:21:11.000Z,12.60
2018-05-25T12:22:11.019Z,12.10
2018-05-25T12:23:11.015Z,12.30
2018-05-25T12:24:11.026Z,12.40
2018-05-25T12:25:11.027Z,11.60
2018-05-25T12:26:11.239Z,11.30
2018-05-25T12:27:11.025Z,9.80
2018-05-25T12:28:11.307Z,9.20
2018-05-25T12:29:11.247Z,9.30
2018-05-25T12:30:11.057Z,9.20
2018-05-25T12:31:11.076Z,9.40
2018-05-25T12:32:11.046Z,9.00
2018-05-25T12:33:11.049Z,9.90
2018-05-25T12:34:11.101Z,9.60
2018-05-25T12:35:11.069Z,13.30
2018-05-25T12:36:11.074Z,13.40
2018-05-25T12:37:11.085Z,13.10
2018-05-25T12:38:11.275Z,12.70
2018-05-25T12:39:11.078Z,12.80
2018-05-25T12:40:11.083Z,13.70
2018-05-25T12:41:11.093Z,13.20
2018-05-25T12:42:11.101Z,13.30
2018-05-25T12:43:11.100Z,13.00
2018-05-25T12:44:11.104Z,13.90
2018-05-25T12:45:11.110Z,13.90
2018-05-25T12:46:11.109Z,13.20
2018-05-25T12:47:11.113Z,12.60
2018-05-25T12:48:11.121Z,13.30
2018-05-25T12:49:11.125Z,12.90
2018-05-25T12:50:11.139Z,13.20
2018-05-25T12:51:11.331Z,13.10
2018-05-25T12:52:11.133Z,13.70
2018-05-25T12:53:11.139Z,13.40
2018-05-25T12:54:11.152Z,13.60
2018-05-25T12:55:11.151Z,13.50
2018-05-25T12:56:11.149Z,13.30
2018-05-25T12:57:11.373Z,13.80
2018-05-25T12:58:11.159Z,13.80
2018-05-25T12:59:11.175Z,14.20
2018-05-25T13:00:11.173Z,13.40
2018-05-25T13:01:11.171Z,13.50
2018-05-25T13:02:11.197Z,13.20
2018-05-25T13:03:11.179Z,13.80
2018-05-25T13:04:11.187Z,13.10
2018-05-25T13:05:11.188Z,13.40
2018-05-25T13:06:11.396Z,12.70
2018-05-25T13:07:11.416Z,13.30
2018-05-25T13:08:11.415Z,13.60
2018-05-25T13:09:11.208Z,14.00
2018-05-25T13:10:11.424Z,13.20
2018-05-25T13:11:11.230Z,12.70
2018-05-25T13:12:11.223Z,13.30
2018-05-25T13:13:11.223Z,13.20
2018-05-25T13:14:11.228Z,14.10
2018-05-25T13:15:11.235Z,15.20
2018-05-25T13:16:11.235Z,15.20
2018-05-25T13:17:11.264Z,15.50
2018-05-25T13:18:11.275Z,16.20
2018-05-25T13:19:11.258Z,15.40
2018-05-25T13:20:11.457Z,16.00
2018-05-25T13:21:11.263Z,15.40
2018-05-25T13:22:11.266Z,15.20
2018-05-25T13:23:11.270Z,12.90